Terminal Aerodrome Forecast
Issued by NWS Cleveland, OH

Home | Current Version | Previous Version | Text Only | Print | Product List | Glossary Off
Versions: 1 2 3 4 5 6 7 8 9 10 11 12 13 14

899
FTUS41 KCLE 211731
TAFTOL
TAF
KTOL 211731Z 2118/2218 23022G34KT P6SM BKN250
     FM212000 24016G29KT P6SM VCSH BKN050
      TEMPO 2120/2123 6SM -SHRA OVC025
     FM212300 27013G23KT P6SM VCSH OVC050
      TEMPO 2123/2203 OVC020
     FM220300 30010G20KT P6SM BKN050
     FM220600 30010KT P6SM SCT050
     FM221400 31006KT P6SM SCT250=

USA.gov is the U.S. government's official web portal to all federal, state and local government web resources and services.